createdAt,value
2019-04-04T00:02:00.156Z,2.10
2019-04-04T00:04:31.695Z,2.43
2019-04-04T00:07:01.703Z,1.87
2019-04-04T00:09:33.147Z,1.60
2019-04-04T00:12:04.130Z,1.60
2019-04-04T00:14:34.634Z,1.80
2019-04-04T00:17:05.573Z,2.20
2019-04-04T00:19:35.720Z,1.80
2019-04-04T00:22:05.917Z,1.97
2019-04-04T00:24:36.111Z,1.50
2019-04-04T00:27:06.640Z,1.97
2019-04-04T00:29:36.641Z,1.43
2019-04-04T00:32:07.033Z,1.83
2019-04-04T00:34:37.270Z,2.23
2019-04-04T00:37:07.926Z,1.87
2019-04-04T00:39:39.823Z,1.97
2019-04-04T00:42:09.616Z,1.53
2019-04-04T00:44:39.590Z,1.80
2019-04-04T00:47:09.709Z,1.90
2019-04-04T00:49:42.820Z,2.03
2019-04-04T00:52:12.830Z,1.73
2019-04-04T00:54:44.913Z,1.80
2019-04-04T00:57:14.765Z,1.67
2019-04-04T00:59:44.796Z,2.03
2019-04-04T01:02:14.745Z,2.30
2019-04-04T01:04:44.935Z,2.20
2019-04-04T01:07:15.341Z,2.07
2019-04-04T01:09:45.897Z,2.00
2019-04-04T01:12:17.144Z,2.90
2019-04-04T01:14:47.394Z,3.10
2019-04-04T01:17:17.400Z,3.17
2019-04-04T01:19:49.069Z,2.93
2019-04-04T01:22:19.004Z,3.50
2019-04-04T01:24:49.351Z,3.03
2019-04-04T01:27:19.789Z,2.50
2019-04-04T01:29:49.819Z,2.40
2019-04-04T01:32:20.029Z,2.50
2019-04-04T01:34:52.169Z,2.20
2019-04-04T01:37:22.329Z,2.37
2019-04-04T01:39:52.313Z,2.80
2019-04-04T01:42:22.921Z,3.20
2019-04-04T01:44:53.194Z,3.63
2019-04-04T01:47:24.552Z,3.43
2019-04-04T01:49:54.589Z,3.20
2019-04-04T01:52:27.853Z,3.83
2019-04-04T01:54:57.454Z,3.47
2019-04-04T01:57:27.926Z,2.47
2019-04-04T01:59:58.116Z,2.27
2019-04-04T02:02:47.028Z,1.70
2019-04-04T02:05:17.720Z,1.40
2019-04-04T02:07:47.840Z,1.20
2019-04-04T02:10:17.832Z,0.90
2019-04-04T02:12:47.869Z,1.10
2019-04-04T02:15:18.221Z,1.47
2019-04-04T02:17:48.236Z,0.90
2019-04-04T02:20:18.489Z,0.93
2019-04-04T02:22:48.644Z,0.97
2019-04-04T02:25:18.829Z,0.90
2019-04-04T02:27:48.791Z,0.97
2019-04-04T02:30:19.277Z,0.80
2019-04-04T02:32:49.529Z,0.80
2019-04-04T02:35:20.130Z,1.07
2019-04-04T02:37:54.933Z,1.00
2019-04-04T02:40:23.571Z,0.90
2019-04-04T02:42:55.438Z,0.80
2019-04-04T02:45:26.817Z,1.00
2019-04-04T02:47:56.794Z,0.70
2019-04-04T02:50:26.841Z,1.03
2019-04-04T02:52:57.922Z,0.80
2019-04-04T02:55:31.030Z,0.80
2019-04-04T02:57:59.830Z,0.97
2019-04-04T03:00:29.874Z,0.90
2019-04-04T03:03:00.270Z,1.10
2019-04-04T03:05:31.949Z,0.80
2019-04-04T03:08:04.134Z,0.93
2019-04-04T03:10:33.825Z,0.73
2019-04-04T03:13:04.190Z,1.40
2019-04-04T03:15:34.697Z,1.00
2019-04-04T03:18:05.553Z,0.90
2019-04-04T03:20:35.652Z,0.80
2019-04-04T03:23:06.117Z,1.00
2019-04-04T03:25:36.658Z,1.07
2019-04-04T03:28:07.192Z,0.90
2019-04-04T03:30:37.150Z,0.93
2019-04-04T03:33:07.572Z,1.17
2019-04-04T03:35:37.649Z,0.80
2019-04-04T03:38:07.725Z,1.03
2019-04-04T03:40:41.606Z,0.87
2019-04-04T03:43:10.449Z,1.60
2019-04-04T03:45:40.466Z,0.90
2019-04-04T03:48:10.483Z,1.67
2019-04-04T03:50:40.456Z,2.20
2019-04-04T03:53:10.537Z,1.00
2019-04-04T03:55:40.806Z,1.13
2019-04-04T03:58:10.812Z,1.10
2019-04-04T04:00:40.803Z,1.00
2019-04-04T04:03:10.790Z,1.10
2019-04-04T04:05:41.064Z,0.83
2019-04-04T04:08:11.403Z,1.00
2019-04-04T04:10:41.683Z,1.20
2019-04-04T04:13:16.180Z,0.90
2019-04-04T04:15:44.463Z,1.10
2019-04-04T04:18:14.851Z,1.00
2019-04-04T04:20:44.933Z,0.90
2019-04-04T04:23:17.092Z,0.90
2019-04-04T04:25:47.240Z,1.07
2019-04-04T04:28:20.134Z,1.10
2019-04-04T04:30:51.404Z,1.10
2019-04-04T04:33:23.400Z,1.30
2019-04-04T04:35:53.432Z,1.10
2019-04-04T04:38:26.881Z,0.80
2019-04-04T04:40:56.021Z,1.13
2019-04-04T04:43:26.117Z,1.10
2019-04-04T04:45:56.081Z,1.40
2019-04-04T04:48:26.243Z,1.00
2019-04-04T04:50:57.745Z,1.00
2019-04-04T04:53:28.317Z,1.17
2019-04-04T04:56:00.606Z,0.90
2019-04-04T04:58:29.982Z,1.00
2019-04-04T05:01:00.038Z,1.20
2019-04-04T05:03:30.184Z,1.10
2019-04-04T05:06:02.315Z,1.03
2019-04-04T05:08:31.877Z,1.03
2019-04-04T05:11:02.509Z,0.90
2019-04-04T05:13:32.582Z,1.10
2019-04-04T05:16:05.239Z,0.90
2019-04-04T05:18:34.305Z,0.90
2019-04-04T05:21:04.546Z,0.97
2019-04-04T05:23:34.493Z,1.23
2019-04-04T05:26:05.182Z,1.10
2019-04-04T05:28:35.598Z,1.00
2019-04-04T05:31:06.304Z,1.50
2019-04-04T05:33:38.824Z,0.90
2019-04-04T05:36:08.942Z,0.83
2019-04-04T05:38:38.995Z,1.30
2019-04-04T05:41:09.533Z,1.10
2019-04-04T05:43:39.816Z,1.10
2019-04-04T05:46:10.987Z,1.00
2019-04-04T05:48:41.617Z,1.60
2019-04-04T05:51:14.926Z,0.97
2019-04-04T05:53:43.297Z,1.00
2019-04-04T05:56:15.180Z,0.90
2019-04-04T05:58:45.005Z,0.80
2019-04-04T06:01:16.700Z,0.97
2019-04-04T06:03:47.977Z,0.80
2019-04-04T06:06:18.093Z,0.80
2019-04-04T06:08:48.483Z,0.97
2019-04-04T06:11:20.897Z,1.00
2019-04-04T06:13:50.879Z,1.00
2019-04-04T06:16:21.060Z,1.03
2019-04-04T06:18:51.173Z,1.03
2019-04-04T06:21:21.651Z,1.00
2019-04-04T06:23:53.841Z,1.13
2019-04-04T06:26:23.762Z,1.17
2019-04-04T06:28:54.051Z,0.80
2019-04-04T06:31:26.187Z,1.40
2019-04-04T06:33:55.925Z,1.07
2019-04-04T06:36:32.261Z,1.00
2019-04-04T06:39:02.318Z,1.00
2019-04-04T06:41:32.781Z,1.20
2019-04-04T06:44:02.790Z,1.37
2019-04-04T06:46:33.417Z,1.77
2019-04-04T06:49:04.405Z,1.13
2019-04-04T06:51:35.597Z,1.00
2019-04-04T06:54:05.806Z,1.10
2019-04-04T06:56:35.793Z,1.60
2019-04-04T06:59:06.221Z,2.93
2019-04-04T07:01:36.357Z,2.17
2019-04-04T07:04:06.669Z,2.63
2019-04-04T07:06:37.180Z,1.67
2019-04-04T07:09:08.504Z,2.00
2019-04-04T07:11:38.860Z,1.20
2019-04-04T07:14:09.145Z,1.60
2019-04-04T07:16:39.661Z,2.30
2019-04-04T07:19:09.719Z,0.90
2019-04-04T07:21:40.121Z,1.20
2019-04-04T07:24:10.238Z,1.50
2019-04-04T07:26:40.209Z,1.00
2019-04-04T07:29:10.565Z,0.90
2019-04-04T07:31:40.637Z,1.30
2019-04-04T07:34:14.281Z,1.30
2019-04-04T07:36:45.070Z,1.60
2019-04-04T07:39:16.241Z,1.00
2019-04-04T07:41:46.301Z,1.60
2019-04-04T07:44:16.717Z,0.93
2019-04-04T07:46:46.712Z,1.23
2019-04-04T07:49:17.405Z,1.17
2019-04-04T07:51:48.444Z,1.00
2019-04-04T07:54:18.525Z,0.90
2019-04-04T07:56:48.932Z,0.90
2019-04-04T07:59:19.203Z,1.27
2019-04-04T08:01:51.242Z,1.20
2019-04-04T08:04:20.954Z,1.07
2019-04-04T08:06:51.059Z,1.10
2019-04-04T08:09:21.625Z,1.00
2019-04-04T08:11:51.715Z,1.50
2019-04-04T08:14:22.177Z,1.37
2019-04-04T08:16:52.241Z,1.30
2019-04-04T08:19:22.234Z,1.20
2019-04-04T08:21:52.711Z,1.30
2019-04-04T08:24:22.692Z,1.57
2019-04-04T08:26:52.722Z,1.40
2019-04-04T08:29:22.741Z,1.00
2019-04-04T08:31:52.721Z,1.30
2019-04-04T08:34:22.678Z,1.43
2019-04-04T08:36:52.687Z,1.20
2019-04-04T08:39:22.748Z,1.17
2019-04-04T08:41:52.710Z,1.37
2019-04-04T08:44:22.678Z,1.17
2019-04-04T08:46:55.445Z,1.10
2019-04-04T08:49:24.400Z,1.10
2019-04-04T08:51:54.397Z,1.10
2019-04-04T08:54:24.448Z,1.97
2019-04-04T08:56:54.428Z,1.57
2019-04-04T08:59:24.542Z,1.00
2019-04-04T09:01:55.187Z,1.20
2019-04-04T09:04:25.495Z,1.20
2019-04-04T09:06:56.025Z,1.40
2019-04-04T09:09:26.575Z,1.50
2019-04-04T09:11:56.524Z,1.30
2019-04-04T09:14:26.560Z,1.37
2019-04-04T09:16:56.549Z,1.00
2019-04-04T09:19:27.329Z,1.00
2019-04-04T09:21:57.344Z,1.73
2019-04-04T09:24:27.317Z,1.20
2019-04-04T09:26:57.321Z,1.63
2019-04-04T09:29:27.352Z,1.30
2019-04-04T09:31:57.347Z,1.30
2019-04-04T09:34:27.317Z,1.83
2019-04-04T09:36:57.941Z,1.30
2019-04-04T09:39:29.096Z,1.77
2019-04-04T09:41:59.158Z,1.33
2019-04-04T09:44:29.261Z,1.50
2019-04-04T09:47:16.518Z,1.10
2019-04-04T09:49:46.682Z,1.43
2019-04-04T09:52:17.313Z,1.20
2019-04-04T09:54:47.778Z,1.20
2019-04-04T09:57:17.792Z,1.60
2019-04-04T09:59:47.866Z,1.10
2019-04-04T10:02:18.379Z,1.40
2019-04-04T10:04:48.365Z,1.57
2019-04-04T10:07:18.442Z,1.90
2019-04-04T10:09:48.443Z,1.50
2019-04-04T10:12:18.688Z,4.97
2019-04-04T10:14:48.764Z,1.93
2019-04-04T10:17:18.685Z,1.33
2019-04-04T10:19:49.146Z,1.07
2019-04-04T10:22:19.503Z,1.67
2019-04-04T10:24:49.956Z,1.60
2019-04-04T10:27:20.481Z,1.63
2019-04-04T10:29:50.826Z,1.50
2019-04-04T10:32:20.904Z,2.10
2019-04-04T10:34:51.003Z,1.30
2019-04-04T10:37:21.021Z,2.20
2019-04-04T10:39:51.016Z,1.53
2019-04-04T10:42:21.521Z,1.80
2019-04-04T10:44:51.500Z,1.80
2019-04-04T10:47:21.488Z,1.50
2019-04-04T10:49:52.018Z,1.73
2019-04-04T10:52:22.172Z,1.70
2019-04-04T10:54:52.146Z,1.70
2019-04-04T10:57:22.989Z,1.73
2019-04-04T10:59:54.574Z,1.63
2019-04-04T11:02:30.593Z,2.00
2019-04-04T11:05:00.748Z,1.63
2019-04-04T11:07:30.841Z,2.00
2019-04-04T11:10:00.968Z,1.80
2019-04-04T11:12:34.078Z,1.50
2019-04-04T11:15:02.916Z,1.80
2019-04-04T11:17:33.265Z,1.93
2019-04-04T11:20:04.204Z,1.40
2019-04-04T11:22:34.195Z,1.60
2019-04-04T11:25:04.306Z,1.80
2019-04-04T11:27:34.493Z,2.23
2019-04-04T11:30:07.665Z,1.70
2019-04-04T11:32:37.864Z,1.33
2019-04-04T11:35:08.165Z,1.60
2019-04-04T11:37:38.192Z,1.40
2019-04-04T11:40:12.195Z,1.50
2019-04-04T11:42:43.604Z,1.10
2019-04-04T11:45:13.693Z,1.77
2019-04-04T11:47:44.138Z,1.50
2019-04-04T11:50:16.236Z,1.47
2019-04-04T11:52:48.935Z,2.10
2019-04-04T11:55:21.993Z,1.57
2019-04-04T11:57:52.084Z,1.43
2019-04-04T12:00:27.612Z,1.80
2019-04-04T12:02:57.606Z,1.50
2019-04-04T12:05:27.612Z,1.30
2019-04-04T12:07:57.849Z,1.27
2019-04-04T12:10:27.870Z,1.60
2019-04-04T12:12:58.810Z,1.40
2019-04-04T12:15:29.437Z,1.73
2019-04-04T12:18:00.318Z,1.73
2019-04-04T12:20:31.046Z,1.70
2019-04-04T12:23:01.055Z,3.77
2019-04-04T12:29:17.553Z,3.97
2019-04-04T12:31:47.709Z,1.90
2019-04-04T12:34:19.822Z,1.30
2019-04-04T12:36:50.721Z,1.47
2019-04-04T12:39:23.062Z,1.60
2019-04-04T12:41:57.538Z,1.20
2019-04-04T12:44:28.583Z,1.63
2019-04-04T12:46:58.776Z,1.60
2019-04-04T12:49:28.913Z,1.40
2019-04-04T12:51:59.407Z,2.07
2019-04-04T12:54:31.727Z,1.37
2019-04-04T12:57:06.902Z,1.27
2019-04-04T12:59:37.411Z,1.60
2019-04-04T13:02:09.906Z,1.33
2019-04-04T13:04:53.837Z,1.30
2019-04-04T13:07:24.742Z,1.67
2019-04-04T13:10:10.926Z,1.30
2019-04-04T13:12:42.467Z,1.57
2019-04-04T13:15:38.416Z,1.33
2019-04-04T13:18:20.311Z,1.77
2019-04-04T13:21:10.425Z,1.47
2019-04-04T13:24:01.523Z,2.00
2019-04-04T13:26:41.817Z,1.20
2019-04-04T13:29:45.240Z,1.87
2019-04-04T13:33:17.301Z,1.90
2019-04-04T13:36:15.021Z,1.90
2019-04-04T13:39:04.329Z,1.50
2019-04-04T13:41:40.678Z,1.90
2019-04-04T13:44:15.187Z,2.03
2019-04-04T13:47:13.289Z,1.33
2019-04-04T13:50:04.450Z,1.57
2019-04-04T13:56:42.396Z,1.57
2019-04-04T13:59:17.016Z,1.73
2019-04-04T14:02:11.425Z,1.70
2019-04-04T14:05:13.972Z,1.50
2019-04-04T14:08:45.801Z,1.40
2019-04-04T14:22:00.586Z,1.30
2019-04-04T14:25:35.311Z,1.63
2019-04-04T14:32:17.523Z,1.30
2019-04-04T14:37:54.854Z,1.40
2019-04-04T14:40:27.049Z,1.90
2019-04-04T14:43:34.029Z,1.40
2019-04-04T14:46:05.964Z,1.27
2019-04-04T14:49:22.461Z,1.43
2019-04-04T14:51:58.513Z,0.90
2019-04-04T14:54:34.683Z,1.10
2019-04-04T14:57:06.591Z,1.00
2019-04-04T14:59:46.326Z,1.43
2019-04-04T15:02:21.598Z,1.53
2019-04-04T15:04:56.143Z,1.20
2019-04-04T15:07:27.049Z,1.47
2019-04-04T15:09:59.135Z,2.10
2019-04-04T15:12:51.287Z,1.53
2019-04-04T15:15:54.601Z,1.40
2019-04-04T15:18:46.078Z,1.17
2019-04-04T15:21:17.469Z,1.57
2019-04-04T15:23:48.933Z,1.47
2019-04-04T15:26:22.593Z,1.90
2019-04-04T15:28:53.743Z,1.30
2019-04-04T15:31:32.800Z,1.73
2019-04-04T15:34:03.714Z,1.33
2019-04-04T15:36:35.278Z,1.70
2019-04-04T15:39:06.426Z,1.60
2019-04-04T15:41:39.036Z,1.57
2019-04-04T15:44:10.081Z,1.03
2019-04-04T15:46:41.322Z,1.23
2019-04-04T15:49:11.479Z,1.03
2019-04-04T15:51:41.859Z,1.17
2019-04-04T15:54:13.574Z,1.30
2019-04-04T15:56:45.107Z,1.30
2019-04-04T15:59:15.310Z,1.00
2019-04-04T16:01:46.104Z,1.30
2019-04-04T16:04:16.575Z,1.70
2019-04-04T16:06:48.387Z,1.27
2019-04-04T16:09:20.089Z,1.13
2019-04-04T16:11:52.890Z,1.00
2019-04-04T16:14:25.162Z,1.20
2019-04-04T16:16:55.811Z,1.27
2019-04-04T16:19:27.598Z,1.30
2019-04-04T16:21:58.256Z,1.10
2019-04-04T16:24:32.553Z,1.43
2019-04-04T16:27:02.730Z,1.60
2019-04-04T16:29:33.081Z,2.50
2019-04-04T16:32:03.178Z,1.40
2019-04-04T16:34:34.354Z,1.57
2019-04-04T16:37:08.635Z,1.87
2019-04-04T16:39:39.475Z,1.93
2019-04-04T16:42:23.193Z,2.00
2019-04-04T16:45:15.070Z,2.73
2019-04-04T16:47:45.544Z,1.70
2019-04-04T16:50:38.721Z,1.37
2019-04-04T16:53:12.410Z,1.63
2019-04-04T16:55:42.435Z,1.90
2019-04-04T16:58:12.781Z,1.60
2019-04-04T17:00:59.472Z,1.70
2019-04-04T17:03:30.084Z,1.30
2019-04-04T17:06:00.545Z,1.90
2019-04-04T17:08:31.505Z,1.37
2019-04-04T17:11:01.769Z,1.93
2019-04-04T17:13:31.815Z,1.63
2019-04-04T17:16:02.347Z,1.10
2019-04-04T17:18:32.621Z,1.23
2019-04-04T17:21:02.747Z,0.90
2019-04-04T17:23:33.229Z,1.30
2019-04-04T17:26:04.437Z,1.40
2019-04-04T17:28:34.706Z,1.10
2019-04-04T17:31:07.117Z,1.30
2019-04-04T17:33:36.946Z,1.00
2019-04-04T17:40:09.394Z,1.10
2019-04-04T17:42:41.893Z,1.00
2019-04-04T17:45:20.948Z,1.13
2019-04-04T17:47:51.474Z,1.10
2019-04-04T17:50:22.345Z,1.40
2019-04-04T17:52:52.859Z,1.73
2019-04-04T17:55:23.082Z,1.60
2019-04-04T17:57:53.184Z,1.80
2019-04-04T18:00:25.998Z,1.10
2019-04-04T18:02:56.038Z,1.43
2019-04-04T18:05:26.477Z,4.20
2019-04-04T18:07:56.504Z,2.20
2019-04-04T18:10:27.463Z,1.53
2019-04-04T18:13:03.317Z,1.40
2019-04-04T18:15:34.965Z,1.60
2019-04-04T18:18:05.777Z,1.60
2019-04-04T18:20:35.806Z,1.63
2019-04-04T18:23:07.033Z,1.63
2019-04-04T18:25:38.775Z,2.00
2019-04-04T18:28:10.061Z,1.80
2019-04-04T18:30:41.802Z,1.50
2019-04-04T18:33:12.940Z,2.20
2019-04-04T18:35:44.107Z,1.30
2019-04-04T18:38:26.164Z,1.87
2019-04-04T18:41:05.469Z,2.20
2019-04-04T18:43:36.746Z,1.47
2019-04-04T18:46:06.978Z,1.50
2019-04-04T18:48:36.977Z,1.70
2019-04-04T18:51:07.648Z,3.40
2019-04-04T18:53:38.049Z,1.10
2019-04-04T18:56:08.433Z,1.60
2019-04-04T18:58:38.585Z,1.60
2019-04-04T19:01:09.118Z,1.70
2019-04-04T19:03:39.471Z,1.60
2019-04-04T19:06:12.182Z,1.50
2019-04-04T19:08:42.229Z,2.00
2019-04-04T19:11:13.038Z,1.20
2019-04-04T19:13:44.448Z,1.93
2019-04-04T19:16:15.433Z,1.63
2019-04-04T19:18:45.449Z,1.40
2019-04-04T19:21:18.444Z,1.80
2019-04-04T19:23:49.695Z,1.50
2019-04-04T19:26:20.530Z,1.80
2019-04-04T19:28:50.765Z,1.30
2019-04-04T19:31:22.069Z,1.53
2019-04-04T19:33:53.433Z,1.00
2019-04-04T19:36:23.752Z,1.83
2019-04-04T19:38:53.838Z,1.60
2019-04-04T19:41:24.222Z,1.40
2019-04-04T19:43:54.692Z,1.80
2019-04-04T19:46:36.614Z,1.50
2019-04-04T19:48:57.553Z,1.80
2019-04-04T19:51:28.149Z,1.67
2019-04-04T19:53:59.221Z,1.20
2019-04-04T19:56:32.729Z,1.23
2019-04-04T19:59:03.807Z,1.30
2019-04-04T20:01:38.060Z,1.03
2019-04-04T20:04:09.120Z,1.30
2019-04-04T20:06:44.178Z,1.30
2019-04-04T20:09:14.730Z,1.53
2019-04-04T20:11:45.136Z,1.60
2019-04-04T20:14:19.501Z,1.40
2019-04-04T20:16:50.272Z,1.30
2019-04-04T20:19:20.829Z,1.40
2019-04-04T20:21:52.101Z,1.77
2019-04-04T20:24:22.585Z,1.40
2019-04-04T20:26:54.124Z,1.40
2019-04-04T20:29:27.525Z,1.70
2019-04-04T20:32:06.725Z,1.30
2019-04-04T20:38:02.002Z,1.60
2019-04-04T20:40:32.740Z,1.67
2019-04-04T20:43:02.796Z,1.20
2019-04-04T20:45:33.418Z,1.30
2019-04-04T20:48:03.514Z,1.60
2019-04-04T20:50:35.200Z,1.53
2019-04-04T20:53:05.705Z,1.47
2019-04-04T20:55:36.259Z,1.10
2019-04-04T20:58:06.281Z,1.10
2019-04-04T21:00:36.538Z,1.20
2019-04-04T21:03:07.660Z,1.13
2019-04-04T21:05:37.859Z,1.33
2019-04-04T21:08:08.132Z,1.27
2019-04-04T21:10:38.994Z,1.20
2019-04-04T21:13:10.085Z,1.50
2019-04-04T21:15:41.149Z,1.10
2019-04-04T21:18:13.884Z,1.40
2019-04-04T21:20:43.572Z,1.43
2019-04-04T21:23:13.707Z,1.30
2019-04-04T21:25:44.421Z,1.80
2019-04-04T21:28:14.734Z,1.67
2019-04-04T21:30:45.480Z,1.13
2019-04-04T21:33:16.289Z,1.10
2019-04-04T21:35:46.340Z,1.53
2019-04-04T21:38:16.785Z,1.47
2019-04-04T21:40:47.567Z,1.40
2019-04-04T21:43:20.149Z,1.13
2019-04-04T21:45:51.019Z,1.20
2019-04-04T21:48:22.113Z,1.00
2019-04-04T21:50:52.230Z,1.50
2019-04-04T21:53:22.965Z,1.27
2019-04-04T21:55:54.389Z,1.17
2019-04-04T21:58:26.366Z,1.63
2019-04-04T22:00:59.482Z,1.40
2019-04-04T22:03:32.670Z,1.60
2019-04-04T22:06:02.642Z,1.23
2019-04-04T22:08:33.837Z,1.80
2019-04-04T22:11:05.705Z,1.20
2019-04-04T22:13:36.925Z,1.40
2019-04-04T22:16:07.019Z,1.40
2019-04-04T22:18:37.457Z,1.40
2019-04-04T22:21:07.793Z,1.33
2019-04-04T22:23:38.301Z,2.07
2019-04-04T22:26:09.440Z,1.30
2019-04-04T22:28:39.938Z,1.27
2019-04-04T22:31:10.050Z,1.07
2019-04-04T22:33:41.191Z,1.00
2019-04-04T22:36:11.690Z,1.00
2019-04-04T22:38:45.128Z,1.17
2019-04-04T22:41:15.177Z,1.10
2019-04-04T22:43:45.817Z,1.10
2019-04-04T22:46:16.433Z,1.27
2019-04-04T22:48:47.837Z,1.40
2019-04-04T22:51:18.265Z,1.20
2019-04-04T22:53:50.552Z,1.10
2019-04-04T22:56:21.476Z,1.10
2019-04-04T22:58:51.486Z,1.03
2019-04-04T23:01:21.724Z,1.03
2019-04-04T23:03:53.026Z,1.10
2019-04-04T23:06:23.581Z,1.10
2019-04-04T23:08:54.804Z,1.77
2019-04-04T23:11:25.502Z,1.10
2019-04-04T23:13:55.660Z,0.90
2019-04-04T23:16:26.085Z,1.03
2019-04-04T23:18:56.625Z,1.10
2019-04-04T23:21:26.981Z,1.00
2019-04-04T23:23:57.636Z,1.30
2019-04-04T23:26:28.460Z,1.27
2019-04-04T23:28:58.794Z,0.90
2019-04-04T23:31:29.133Z,1.17
2019-04-04T23:33:59.777Z,1.10
2019-04-04T23:36:35.322Z,1.23
2019-04-04T23:39:01.712Z,1.20
2019-04-04T23:41:32.348Z,0.90
2019-04-04T23:44:02.495Z,1.00
2019-04-04T23:46:33.267Z,0.70
2019-04-04T23:49:03.350Z,1.17
2019-04-04T23:51:34.405Z,1.03
2019-04-04T23:54:04.641Z,0.93
2019-04-04T23:56:34.811Z,1.30
2019-04-04T23:59:05.104Z,1.30
